createdAt,value
2022-12-16T00:01:15.588Z,74.67
2022-12-16T00:03:44.229Z,77.80
2022-12-16T00:06:10.839Z,69.00
2022-12-16T00:08:38.864Z,65.33
2022-12-16T00:11:06.118Z,65.30
2022-12-16T00:13:35.098Z,63.23
2022-12-16T00:16:07.342Z,58.67
2022-12-16T00:18:35.964Z,56.63
2022-12-16T00:21:03.188Z,48.07
2022-12-16T00:23:30.817Z,54.60
2022-12-16T00:25:57.543Z,45.87
2022-12-16T00:28:24.387Z,50.83
2022-12-16T00:30:52.026Z,44.93
2022-12-16T00:33:19.386Z,43.20
2022-12-16T00:35:46.507Z,39.40
2022-12-16T00:38:14.072Z,41.97
2022-12-16T00:40:40.837Z,42.73
2022-12-16T00:43:07.416Z,39.73
2022-12-16T00:45:34.224Z,33.53
2022-12-16T00:48:01.087Z,39.07
2022-12-16T00:50:27.740Z,41.90
2022-12-16T00:52:54.206Z,37.73
2022-12-16T00:55:21.438Z,38.63
2022-12-16T00:57:48.011Z,36.80
2022-12-16T01:00:15.688Z,38.37
2022-12-16T01:02:43.752Z,35.57
2022-12-16T01:05:11.813Z,39.70
2022-12-16T01:07:38.532Z,36.40
2022-12-16T01:10:06.339Z,34.17
2022-12-16T01:12:33.379Z,36.60
2022-12-16T01:15:00.674Z,38.20
2022-12-16T01:17:27.636Z,44.03
2022-12-16T01:19:54.581Z,38.40
2022-12-16T01:22:21.977Z,38.97
2022-12-16T01:24:48.885Z,39.33
2022-12-16T01:27:15.976Z,36.97
2022-12-16T01:29:42.896Z,45.23
2022-12-16T01:32:13.167Z,32.33
2022-12-16T01:34:40.102Z,39.43
2022-12-16T01:37:06.567Z,36.30
2022-12-16T01:39:33.129Z,34.60
2022-12-16T01:41:59.656Z,37.23
2022-12-16T01:44:26.819Z,35.03
2022-12-16T01:46:59.609Z,36.30
2022-12-16T01:49:43.716Z,34.20
2022-12-16T01:52:17.362Z,40.97
2022-12-16T01:55:07.514Z,35.00
2022-12-16T01:57:40.609Z,38.37
2022-12-16T02:00:07.964Z,41.50
2022-12-16T02:02:35.067Z,42.23
2022-12-16T02:05:20.317Z,38.70
2022-12-16T02:08:06.045Z,32.60
2022-12-16T02:10:38.401Z,34.07
2022-12-16T02:13:48.537Z,32.17
2022-12-16T02:16:30.470Z,34.23
2022-12-16T02:19:32.587Z,34.00
2022-12-16T02:22:01.999Z,35.77
2022-12-16T02:24:48.048Z,37.83
2022-12-16T02:27:29.660Z,35.30
2022-12-16T02:30:07.052Z,28.10
2022-12-16T02:32:57.985Z,37.53
2022-12-16T02:35:37.181Z,34.47
2022-12-16T02:38:15.783Z,32.83
2022-12-16T02:40:46.383Z,32.27
2022-12-16T02:43:18.592Z,38.50
2022-12-16T02:45:46.139Z,37.90
2022-12-16T02:48:12.691Z,32.07
2022-12-16T02:50:50.877Z,29.80
2022-12-16T02:53:18.770Z,36.60
2022-12-16T02:55:50.708Z,33.83
2022-12-16T02:58:47.265Z,33.00
2022-12-16T03:01:24.191Z,36.40
2022-12-16T03:04:12.123Z,38.00
2022-12-16T03:06:41.076Z,36.47
2022-12-16T03:09:09.780Z,30.00
2022-12-16T03:11:38.346Z,27.80
2022-12-16T03:14:06.236Z,38.33
2022-12-16T03:16:33.719Z,31.77
2022-12-16T03:19:03.407Z,29.93
2022-12-16T03:21:46.567Z,32.47
2022-12-16T03:24:13.977Z,24.63
2022-12-16T03:26:57.144Z,28.87
2022-12-16T03:29:26.884Z,32.77
2022-12-16T03:31:59.296Z,32.07
2022-12-16T03:34:42.354Z,30.93
2022-12-16T03:37:10.532Z,33.53
2022-12-16T03:39:42.698Z,38.17
2022-12-16T03:42:09.958Z,27.20
2022-12-16T03:44:36.520Z,29.70
2022-12-16T03:47:04.013Z,36.93
2022-12-16T03:49:30.567Z,30.80
2022-12-16T03:51:57.447Z,32.87
2022-12-16T03:54:24.368Z,32.67
2022-12-16T03:56:50.804Z,38.43
2022-12-16T03:59:17.398Z,29.57
2022-12-16T04:01:44.004Z,36.50
2022-12-16T04:04:10.891Z,32.77
2022-12-16T04:06:37.423Z,31.60
2022-12-16T04:09:04.411Z,29.00
2022-12-16T04:11:49.668Z,29.43
2022-12-16T04:14:34.641Z,30.53
2022-12-16T04:17:20.111Z,32.20
2022-12-16T04:20:05.246Z,28.33
2022-12-16T04:23:01.120Z,31.37
2022-12-16T04:25:30.784Z,28.17
2022-12-16T04:27:58.657Z,24.80
2022-12-16T04:30:27.512Z,31.10
2022-12-16T04:33:17.757Z,31.67
2022-12-16T04:36:03.385Z,30.07
2022-12-16T04:38:48.498Z,27.10
2022-12-16T04:41:33.648Z,32.80
2022-12-16T04:44:23.481Z,26.37
2022-12-16T04:47:08.568Z,25.43
2022-12-16T04:49:53.398Z,30.60
2022-12-16T04:52:38.569Z,31.83
2022-12-16T04:55:24.373Z,30.17
2022-12-16T04:58:14.460Z,26.07
2022-12-16T05:01:00.452Z,23.83
2022-12-16T05:03:46.072Z,22.87
2022-12-16T05:06:32.076Z,25.60
2022-12-16T05:09:17.134Z,30.87
2022-12-16T05:12:02.484Z,23.30
2022-12-16T05:14:47.647Z,28.03
2022-12-16T05:17:32.976Z,30.87
2022-12-16T05:20:18.120Z,29.10
2022-12-16T05:23:03.307Z,32.70
2022-12-16T05:25:48.365Z,25.83
2022-12-16T05:28:47.421Z,28.20
2022-12-16T05:31:32.798Z,26.50
2022-12-16T05:34:18.240Z,24.43
2022-12-16T05:37:03.356Z,27.73
2022-12-16T05:39:48.454Z,25.33
2022-12-16T05:42:33.543Z,26.07
2022-12-16T05:45:18.865Z,25.23
2022-12-16T05:48:06.959Z,27.87
2022-12-16T05:50:51.977Z,29.37
2022-12-16T05:53:37.201Z,27.37
2022-12-16T05:56:22.149Z,29.50
2022-12-16T05:59:07.236Z,26.93
2022-12-16T06:01:52.968Z,27.73
2022-12-16T06:04:38.349Z,26.70
2022-12-16T06:07:23.544Z,25.30
2022-12-16T06:10:08.922Z,27.60
2022-12-16T06:12:54.158Z,28.17
2022-12-16T06:15:39.124Z,27.63
2022-12-16T06:18:24.367Z,33.77
2022-12-16T06:21:09.494Z,39.73
2022-12-16T06:23:55.003Z,25.83
2022-12-16T06:26:40.109Z,42.30
2022-12-16T06:29:44.301Z,29.23
2022-12-16T06:32:29.315Z,30.30
2022-12-16T06:35:14.522Z,30.47
2022-12-16T06:37:59.719Z,24.83
2022-12-16T06:40:44.763Z,32.63
2022-12-16T06:43:29.977Z,29.63
2022-12-16T06:46:15.634Z,33.23
2022-12-16T06:49:00.762Z,36.60
2022-12-16T06:51:45.674Z,32.60
2022-12-16T06:54:30.799Z,32.57
2022-12-16T06:57:15.888Z,37.10
2022-12-16T07:00:01.389Z,30.33
2022-12-16T07:02:46.409Z,35.67
2022-12-16T07:05:31.661Z,35.57
2022-12-16T07:08:16.833Z,38.17
2022-12-16T07:11:15.694Z,33.20
2022-12-16T07:14:02.200Z,35.83
2022-12-16T07:16:47.386Z,28.93
2022-12-16T07:19:32.742Z,45.73
2022-12-16T07:22:17.520Z,27.60
2022-12-16T07:25:02.674Z,29.90
2022-12-16T07:27:47.692Z,35.70
2022-12-16T07:30:32.814Z,33.77
2022-12-16T07:33:22.392Z,36.60
2022-12-16T07:36:07.718Z,32.93
2022-12-16T07:38:52.813Z,40.13
2022-12-16T07:41:37.705Z,33.03
2022-12-16T07:44:23.080Z,32.10
2022-12-16T07:47:12.806Z,34.90
2022-12-16T07:49:58.160Z,33.37
2022-12-16T07:52:43.074Z,30.97
2022-12-16T07:55:28.677Z,32.00
2022-12-16T07:58:13.722Z,27.87
2022-12-16T08:00:58.936Z,28.03
2022-12-16T08:03:44.145Z,34.20
2022-12-16T08:06:29.335Z,31.20
2022-12-16T08:09:14.438Z,31.10
2022-12-16T08:11:59.671Z,26.87
2022-12-16T08:14:44.811Z,36.10
2022-12-16T08:17:30.062Z,29.60
2022-12-16T08:20:15.171Z,35.10
2022-12-16T08:23:00.492Z,38.13
2022-12-16T08:25:45.859Z,39.07
2022-12-16T08:28:31.349Z,30.57
2022-12-16T08:31:16.360Z,29.17
2022-12-16T08:34:01.866Z,32.53
2022-12-16T08:36:46.872Z,43.87
2022-12-16T08:39:31.930Z,35.83
2022-12-16T08:42:17.160Z,38.73
2022-12-16T08:45:02.361Z,43.83
2022-12-16T08:47:47.279Z,46.97
2022-12-16T08:50:32.141Z,42.33
2022-12-16T08:53:17.154Z,35.93
2022-12-16T08:56:02.306Z,37.73
2022-12-16T08:58:47.287Z,41.70
2022-12-16T09:01:49.023Z,40.00
2022-12-16T09:04:35.953Z,31.63
2022-12-16T09:07:21.177Z,31.23
2022-12-16T09:10:06.155Z,35.37
2022-12-16T09:12:51.191Z,29.27
2022-12-16T09:15:36.031Z,27.77
2022-12-16T09:18:21.255Z,24.93
2022-12-16T09:21:06.171Z,27.73
2022-12-16T09:23:51.306Z,28.67
2022-12-16T09:26:53.298Z,24.03
2022-12-16T09:29:43.428Z,18.90
2022-12-16T09:32:46.626Z,17.93
2022-12-16T09:35:32.103Z,17.90
2022-12-16T09:38:16.905Z,18.10
2022-12-16T09:41:02.384Z,18.03
2022-12-16T09:44:18.646Z,18.77
2022-12-16T09:47:21.601Z,17.60
2022-12-16T09:50:11.049Z,15.87
2022-12-16T09:53:00.645Z,19.33
2022-12-16T09:55:53.133Z,19.00
2022-12-16T09:58:48.646Z,16.93
2022-12-16T10:01:33.946Z,16.67
2022-12-16T10:04:19.223Z,17.20
2022-12-16T10:07:10.372Z,17.07
2022-12-16T10:10:10.896Z,17.33
2022-12-16T10:13:00.374Z,16.90
2022-12-16T10:16:04.349Z,20.10
2022-12-16T10:19:17.161Z,17.70
2022-12-16T10:22:31.505Z,16.57
2022-12-16T10:25:25.202Z,17.70
2022-12-16T10:28:13.045Z,15.07
2022-12-16T10:30:58.546Z,21.90
2022-12-16T10:33:46.690Z,17.57
2022-12-16T10:36:39.452Z,15.87
2022-12-16T10:39:49.881Z,16.03
2022-12-16T10:42:43.205Z,13.83
2022-12-16T10:45:59.359Z,14.30
2022-12-16T10:48:56.558Z,14.83
2022-12-16T10:51:43.171Z,15.40
2022-12-16T10:54:40.232Z,15.10
2022-12-16T10:57:31.752Z,16.77
2022-12-16T11:00:40.955Z,15.47
2022-12-16T11:03:56.795Z,16.00
2022-12-16T11:06:46.672Z,15.97
2022-12-16T11:09:39.806Z,14.43
2022-12-16T11:12:48.929Z,13.37
2022-12-16T11:15:46.013Z,14.17
2022-12-16T11:18:32.763Z,13.20
2022-12-16T11:21:55.620Z,13.73
2022-12-16T11:24:41.036Z,15.23
2022-12-16T11:27:44.023Z,14.97
2022-12-16T11:30:32.095Z,13.83
2022-12-16T11:33:19.377Z,15.83
2022-12-16T11:36:12.767Z,13.37
2022-12-16T11:39:08.832Z,13.27
2022-12-16T11:41:57.055Z,13.33
2022-12-16T11:44:55.003Z,13.27
2022-12-16T11:47:56.607Z,13.00
2022-12-16T11:50:44.134Z,13.17
2022-12-16T11:53:53.431Z,12.47
2022-12-16T11:56:43.327Z,12.07
2022-12-16T11:59:40.767Z,10.80
2022-12-16T12:02:39.405Z,11.00
2022-12-16T12:05:24.505Z,11.43
2022-12-16T12:08:30.921Z,12.13
2022-12-16T12:11:24.592Z,12.20
2022-12-16T12:14:23.974Z,12.73
2022-12-16T12:17:34.231Z,10.27
2022-12-16T12:20:34.742Z,10.70
2022-12-16T12:23:26.146Z,13.20
2022-12-16T12:26:14.197Z,98.33
2022-12-16T12:29:18.798Z,11.13
2022-12-16T12:32:25.369Z,10.00
2022-12-16T12:35:49.243Z,69.53
2022-12-16T12:38:40.148Z,17.37
2022-12-16T12:41:41.164Z,11.33
2022-12-16T12:44:36.624Z,37.80
2022-12-16T12:47:29.253Z,10.33
2022-12-16T12:50:22.949Z,12.70
2022-12-16T12:53:27.025Z,12.50
2022-12-16T12:56:22.002Z,14.33
2022-12-16T12:59:09.652Z,11.43
2022-12-16T13:02:00.711Z,12.57
2022-12-16T13:04:48.100Z,10.97
2022-12-16T13:07:33.177Z,11.93
2022-12-16T13:10:43.517Z,13.80
2022-12-16T13:13:41.004Z,14.37
2022-12-16T13:16:31.307Z,11.27
2022-12-16T13:19:48.003Z,12.87
2022-12-16T13:22:54.673Z,16.13
2022-12-16T13:25:52.176Z,16.80
2022-12-16T13:28:50.092Z,10.43
2022-12-16T13:31:36.205Z,14.30
2022-12-16T13:34:39.320Z,11.53
2022-12-16T13:37:31.145Z,13.03
2022-12-16T13:40:25.502Z,10.57
2022-12-16T13:43:12.354Z,13.60
2022-12-16T13:46:16.261Z,13.47
2022-12-16T13:49:01.655Z,12.23
2022-12-16T13:51:55.980Z,21.23
2022-12-16T13:54:44.032Z,14.50
2022-12-16T13:57:30.360Z,31.93
2022-12-16T14:00:17.164Z,18.10
2022-12-16T14:03:02.241Z,14.17
2022-12-16T14:05:49.125Z,10.70
2022-12-16T14:08:42.508Z,18.43
2022-12-16T14:11:50.163Z,14.83
2022-12-16T14:14:42.062Z,13.80
2022-12-16T14:17:42.996Z,14.00
2022-12-16T14:20:35.708Z,19.83
2022-12-16T14:23:57.182Z,17.50
2022-12-16T14:26:43.184Z,13.77
2022-12-16T14:29:39.315Z,21.23
2022-12-16T14:32:46.803Z,20.70
2022-12-16T14:35:36.498Z,16.93
2022-12-16T14:38:51.093Z,14.80
2022-12-16T14:41:43.359Z,16.20
2022-12-16T14:44:40.255Z,20.33
2022-12-16T14:47:34.950Z,14.70
2022-12-16T14:50:20.077Z,19.40
2022-12-16T14:53:05.230Z,20.13
2022-12-16T14:55:52.752Z,27.47
2022-12-16T14:58:40.253Z,28.73
2022-12-16T15:01:39.987Z,22.63
2022-12-16T15:04:37.607Z,29.43
2022-12-16T15:07:31.058Z,25.17
2022-12-16T15:10:16.465Z,30.93
2022-12-16T15:13:02.801Z,29.30
2022-12-16T15:15:57.995Z,33.77
2022-12-16T15:18:50.998Z,28.73
2022-12-16T15:21:36.178Z,34.23
2022-12-16T15:24:27.452Z,34.70
2022-12-16T15:27:52.134Z,61.47
2022-12-16T15:30:55.861Z,40.97
2022-12-16T15:33:55.976Z,34.10
2022-12-16T15:36:52.966Z,25.90
2022-12-16T15:39:43.649Z,27.07
2022-12-16T15:42:38.907Z,68.57
2022-12-16T15:45:24.924Z,66.87
2022-12-16T15:48:10.292Z,82.53
2022-12-16T15:51:11.927Z,62.43
2022-12-16T15:54:24.289Z,58.07
2022-12-16T15:57:09.377Z,48.27
2022-12-16T15:59:56.879Z,40.07
2022-12-16T16:02:45.216Z,34.40
2022-12-16T16:05:43.132Z,36.10
2022-12-16T16:08:31.726Z,45.43
2022-12-16T16:11:16.899Z,32.87
2022-12-16T16:14:07.165Z,24.40
2022-12-16T16:16:52.404Z,28.00
2022-12-16T16:19:43.379Z,27.03
2022-12-16T16:22:34.136Z,24.23
2022-12-16T16:25:19.447Z,22.90
2022-12-16T16:28:04.952Z,29.43
2022-12-16T16:30:50.399Z,26.10
2022-12-16T16:33:35.551Z,31.20
2022-12-16T16:36:30.665Z,34.37
2022-12-16T16:39:15.872Z,40.10
2022-12-16T16:42:01.341Z,40.60
2022-12-16T16:44:46.464Z,38.83
2022-12-16T16:47:34.672Z,39.03
2022-12-16T16:50:19.822Z,44.57
2022-12-16T16:53:04.894Z,51.93
2022-12-16T16:55:50.057Z,36.47
2022-12-16T16:58:41.977Z,43.20
2022-12-16T17:01:30.660Z,44.70
2022-12-16T17:04:16.343Z,37.50
2022-12-16T17:07:01.686Z,44.87
2022-12-16T17:09:46.759Z,39.60
2022-12-16T17:12:43.779Z,41.07
2022-12-16T17:15:44.512Z,34.20
2022-12-16T17:18:29.798Z,44.70
2022-12-16T17:21:15.088Z,42.20
2022-12-16T17:24:00.383Z,44.40
2022-12-16T17:26:45.534Z,40.10
2022-12-16T17:29:43.921Z,42.00
2022-12-16T17:32:29.765Z,45.60
2022-12-16T17:35:15.535Z,42.10
2022-12-16T17:38:00.689Z,51.07
2022-12-16T17:40:45.716Z,44.70
2022-12-16T17:43:31.146Z,43.90
2022-12-16T17:46:24.977Z,43.03
2022-12-16T17:49:11.381Z,42.37
2022-12-16T17:51:56.348Z,38.20
2022-12-16T17:54:41.500Z,38.80
2022-12-16T17:57:26.708Z,36.00
2022-12-16T18:00:11.696Z,40.20
2022-12-16T18:02:56.911Z,36.17
2022-12-16T18:05:44.679Z,40.60
2022-12-16T18:08:30.129Z,37.57
2022-12-16T18:11:16.745Z,39.53
2022-12-16T18:14:01.871Z,35.47
2022-12-16T18:16:48.045Z,41.93
2022-12-16T18:19:34.333Z,31.30
2022-12-16T18:22:19.664Z,39.80
2022-12-16T18:25:04.792Z,43.63
2022-12-16T18:27:50.242Z,34.10
2022-12-16T18:30:35.478Z,46.77
2022-12-16T18:33:20.921Z,45.47
2022-12-16T18:36:06.098Z,45.03
2022-12-16T18:38:51.499Z,53.43
2022-12-16T18:41:39.563Z,53.63
2022-12-16T18:44:27.628Z,58.57
2022-12-16T18:47:12.687Z,51.50
2022-12-16T18:49:58.084Z,57.30
2022-12-16T18:52:43.005Z,56.17
2022-12-16T18:55:28.217Z,51.10
2022-12-16T18:58:34.811Z,58.03
2022-12-16T19:01:22.998Z,51.37
2022-12-16T19:04:08.056Z,43.40
2022-12-16T19:06:53.503Z,45.20
2022-12-16T19:09:43.991Z,49.43
2022-12-16T19:12:29.672Z,45.43
2022-12-16T19:18:24.673Z,48.27
2022-12-16T19:21:13.248Z,42.40
2022-12-16T19:23:58.368Z,57.90
2022-12-16T19:26:43.544Z,41.90
2022-12-16T19:29:28.592Z,52.63
2022-12-16T19:32:13.779Z,44.73
2022-12-16T19:34:59.270Z,46.07
2022-12-16T19:37:44.581Z,43.00
2022-12-16T19:40:29.765Z,37.53
2022-12-16T19:43:14.915Z,36.87
2022-12-16T19:45:59.998Z,48.23
2022-12-16T19:48:46.725Z,37.27
2022-12-16T19:51:31.572Z,38.13
2022-12-16T19:54:16.415Z,37.00
2022-12-16T19:57:01.562Z,35.93
2022-12-16T19:59:46.390Z,37.23
2022-12-16T20:02:31.811Z,41.63
2022-12-16T20:05:16.926Z,39.23
2022-12-16T20:08:02.112Z,32.40
2022-12-16T20:10:47.188Z,34.03
2022-12-16T20:13:32.464Z,38.30
2022-12-16T20:16:24.706Z,34.00
2022-12-16T20:19:09.865Z,32.00
2022-12-16T20:21:56.329Z,31.67
2022-12-16T20:24:41.824Z,38.70
2022-12-16T20:27:26.954Z,26.63
2022-12-16T20:30:12.104Z,29.40
2022-12-16T20:33:00.294Z,33.40
2022-12-16T20:35:45.559Z,30.50
2022-12-16T20:38:31.946Z,30.83
2022-12-16T20:41:18.240Z,30.47
2022-12-16T20:44:06.327Z,35.63
2022-12-16T20:46:51.818Z,42.47
2022-12-16T20:49:37.044Z,32.13
2022-12-16T20:52:22.413Z,33.10
2022-12-16T20:55:07.556Z,33.53
2022-12-16T20:57:52.694Z,30.93
2022-12-16T21:00:41.047Z,43.00
2022-12-16T21:03:27.138Z,32.20
2022-12-16T21:06:12.217Z,33.40
2022-12-16T21:08:57.627Z,38.80
2022-12-16T21:11:42.756Z,29.50
2022-12-16T21:14:27.981Z,32.67
2022-12-16T21:17:13.002Z,30.50
2022-12-16T21:19:57.771Z,26.20
2022-12-16T21:22:42.967Z,27.27
2022-12-16T21:25:28.064Z,34.50
2022-12-16T21:28:17.279Z,25.83
2022-12-16T21:31:03.468Z,26.07
2022-12-16T21:33:48.930Z,25.23
2022-12-16T21:36:34.336Z,27.90
2022-12-16T21:39:19.325Z,32.87
2022-12-16T21:42:04.512Z,29.80
2022-12-16T21:44:49.467Z,25.03
2022-12-16T21:47:34.587Z,26.40
2022-12-16T21:50:19.775Z,32.03
2022-12-16T21:53:07.994Z,23.10
2022-12-16T21:55:53.117Z,30.90
2022-12-16T21:58:39.110Z,28.53
2022-12-16T22:01:24.437Z,32.40
2022-12-16T22:04:10.034Z,31.40
2022-12-16T22:06:55.091Z,38.17
2022-12-16T22:09:42.850Z,81.37
2022-12-16T22:12:28.056Z,88.53
2022-12-16T22:15:13.411Z,115.23
2022-12-16T22:17:58.914Z,113.77
2022-12-16T22:20:44.921Z,139.77
2022-12-16T22:23:40.879Z,146.97
2022-12-16T22:26:26.603Z,138.10
2022-12-16T22:29:11.731Z,147.83
2022-12-16T22:31:57.107Z,116.90
2022-12-16T22:34:42.069Z,157.53
2022-12-16T22:37:27.544Z,116.43
2022-12-16T22:40:12.653Z,154.17
2022-12-16T22:42:57.706Z,158.17
2022-12-16T22:45:42.702Z,130.10
2022-12-16T22:48:30.702Z,104.87
2022-12-16T22:51:16.058Z,102.23
2022-12-16T22:54:01.305Z,118.13
2022-12-16T22:56:46.376Z,130.30
2022-12-16T22:59:31.779Z,129.47
2022-12-16T23:02:17.030Z,106.80
2022-12-16T23:05:02.427Z,110.33
2022-12-16T23:07:47.605Z,135.13
2022-12-16T23:10:33.124Z,126.70
2022-12-16T23:13:18.044Z,227.00
2022-12-16T23:16:03.417Z,150.70
2022-12-16T23:18:48.474Z,123.27
2022-12-16T23:24:44.269Z,163.77
2022-12-16T23:27:29.719Z,154.70
2022-12-16T23:30:14.901Z,135.77
2022-12-16T23:33:00.347Z,134.63
2022-12-16T23:35:45.313Z,128.33
2022-12-16T23:38:30.611Z,116.53
2022-12-16T23:41:16.819Z,121.90
2022-12-16T23:44:02.630Z,122.03
2022-12-16T23:46:47.960Z,133.90
2022-12-16T23:49:33.131Z,129.40
2022-12-16T23:52:18.219Z,106.37
2022-12-16T23:55:03.439Z,112.03
2022-12-16T23:57:48.733Z,92.80
